Time;durP1;ratioP1;P1;durP2;ratioP2;P2;SDS_P1;SDS_P2;PMS_P1;PMS_P2;Temp;Humidity;BMP_temperature;BMP_pressure;BME280_temperature;BME280_humidity;BME280_pressure;Samples;Min_cycle;Max_cycle;Signal;HPM_P1;HPM_P2
2023/01/17 00:02:06;;;;;;;3.90;1.52;;;3.80;99.90;;;;;;4953416;28;20416;-72
2023/01/17 00:10:08;;;;;;;1.83;0.60;;;3.80;99.90;;;;;;4986733;28;20408;-74
2023/01/17 00:12:38;;;;;;;1.55;0.60;;;3.80;99.90;;;;;;4965800;28;20437;-74
2023/01/17 00:15:05;;;;;;;1.73;0.70;;;3.80;99.90;;;;;;4983214;28;20050;-75
2023/01/17 00:17:30;;;;;;;2.10;0.80;;;3.80;99.90;;;;;;4965206;28;20050;-75
2023/01/17 01:35:23;;;;;;;5.88;1.38;;;2.80;99.90;;;;;;4967335;28;20058;-73
2023/01/17 01:37:49;;;;;;;7.07;1.00;;;2.80;99.90;;;;;;4968961;28;20034;-73
2023/01/17 01:40:16;;;;;;;5.22;0.93;;;2.80;99.90;;;;;;4970301;28;20038;-74
2023/01/17 01:42:53;;;;;;;6.20;1.23;;;2.90;99.90;;;;;;4986413;28;20068;-72
2023/01/17 01:45:25;;;;;;;8.82;1.00;;;2.90;99.90;;;;;;4968292;28;20058;-72
2023/01/17 01:48:16;;;;;;;7.90;1.20;;;2.90;99.90;;;;;;4985577;28;20592;-73
2023/01/17 01:50:42;;;;;;;9.68;1.30;;;2.90;99.90;;;;;;4971795;28;20050;-73
2023/01/17 01:53:09;;;;;;;7.60;0.90;;;2.90;99.90;;;;;;4969431;28;20448;-76
2023/01/17 01:55:39;;;;;;;8.27;1.10;;;2.90;99.90;;;;;;4969115;28;20140;-73
2023/01/17 01:58:14;;;;;;;8.55;1.50;;;2.90;99.90;;;;;;4970264;28;20038;-71
2023/01/17 02:00:40;;;;;;;6.30;1.10;;;2.90;99.90;;;;;;4969266;28;20054;-72
2023/01/17 02:03:13;;;;;;;6.28;1.00;;;2.80;99.90;;;;;;4985338;28;20560;-72
2023/01/17 02:05:42;;;;;;;5.57;0.82;;;2.90;99.90;;;;;;4987186;28;20049;-75
2023/01/17 02:08:12;;;;;;;10.60;1.25;;;2.80;99.90;;;;;;4969034;28;20042;-71
2023/01/17 02:10:42;;;;;;;7.80;1.48;;;2.80;99.90;;;;;;4986685;28;20051;-72
2023/01/17 02:13:09;;;;;;;7.88;1.15;;;2.70;99.90;;;;;;4986061;28;20552;-71
2023/01/17 02:15:38;;;;;;;9.70;1.52;;;2.70;99.90;;;;;;4988015;28;20060;-74
2023/01/17 02:18:22;;;;;;;8.93;1.33;;;2.70;99.90;;;;;;4987812;28;20057;-72
2023/01/17 02:21:13;;;;;;;7.82;1.17;;;2.70;99.90;;;;;;4969866;28;20058;-72
2023/01/17 02:24:17;;;;;;;6.13;1.08;;;2.70;99.90;;;;;;4987975;28;20115;-73
2023/01/17 02:27:10;;;;;;;8.77;1.30;;;2.70;99.90;;;;;;4969388;28;20553;-72
2023/01/17 02:29:45;;;;;;;8.93;1.20;;;2.70;99.90;;;;;;4987378;28;20571;-72
2023/01/17 02:32:29;;;;;;;8.27;0.90;;;2.70;99.90;;;;;;4987932;28;20057;-72
2023/01/17 02:35:10;;;;;;;9.85;1.52;;;2.70;99.90;;;;;;4983919;28;20045;-73
2023/01/17 02:38:16;;;;;;;10.35;1.27;;;2.60;99.90;;;;;;4987981;28;20073;-73
2023/01/17 02:40:51;;;;;;;6.60;1.33;;;2.70;99.90;;;;;;4971286;28;20520;-72
2023/01/17 02:43:19;;;;;;;6.13;1.23;;;2.70;99.90;;;;;;4972810;28;20050;-73
2023/01/17 02:45:45;;;;;;;7.83;1.10;;;2.70;99.90;;;;;;4988844;28;20057;-72
2023/01/17 02:48:13;;;;;;;9.00;1.43;;;2.70;99.90;;;;;;4984684;28;20041;-72
2023/01/17 02:51:01;;;;;;;5.78;0.93;;;2.70;99.90;;;;;;4988234;28;20046;-72
2023/01/17 02:53:41;;;;;;;8.05;0.77;;;2.70;99.90;;;;;;4973913;28;20054;-73
2023/01/17 02:56:15;;;;;;;5.55;0.90;;;2.80;99.90;;;;;;4985193;28;20132;-73
2023/01/17 02:59:03;;;;;;;8.57;1.40;;;2.70;99.90;;;;;;4989196;28;20520;-72
2023/01/17 03:01:55;;;;;;;8.32;1.35;;;2.80;99.90;;;;;;4985827;28;20165;-73
2023/01/17 03:04:30;;;;;;;8.00;1.52;;;2.80;99.90;;;;;;4984439;28;20046;-73
2023/01/17 03:07:07;;;;;;;7.03;1.15;;;2.80;99.90;;;;;;4959982;28;20054;-74
2023/01/17 03:09:34;;;;;;;7.32;1.35;;;2.80;99.90;;;;;;4989937;28;20057;-74
2023/01/17 03:12:02;;;;;;;6.32;0.85;;;2.90;99.90;;;;;;4966236;28;20052;-74
2023/01/17 03:14:30;;;;;;;5.90;1.00;;;2.90;99.90;;;;;;4993970;28;20045;-73
2023/01/17 03:16:55;;;;;;;7.82;1.30;;;2.90;99.90;;;;;;4973303;28;20540;-74
2023/01/17 03:19:21;;;;;;;7.82;1.10;;;2.80;99.90;;;;;;4985854;28;20188;-75
2023/01/17 03:21:48;;;;;;;7.70;0.97;;;2.70;99.90;;;;;;4958470;28;20038;-73
2023/01/17 03:24:14;;;;;;;6.43;1.10;;;2.70;99.90;;;;;;4971163;28;20070;-72
2023/01/17 03:26:43;;;;;;;8.38;1.25;;;2.60;99.90;;;;;;4989434;28;20639;-73
2023/01/17 03:29:10;;;;;;;9.27;1.45;;;2.60;99.90;;;;;;4972674;28;20484;-73
2023/01/17 03:31:35;;;;;;;7.20;1.53;;;2.50;99.90;;;;;;4976682;28;20050;-72
2023/01/17 03:34:01;;;;;;;6.10;0.87;;;2.50;99.90;;;;;;4991278;28;20113;-73
2023/01/17 03:36:27;;;;;;;13.33;1.63;;;2.50;99.90;;;;;;4956526;28;20046;-72
2023/01/17 03:38:53;;;;;;;4.03;0.85;;;2.50;99.90;;;;;;4955770;28;20030;-73
2023/01/17 03:41:18;;;;;;;6.03;0.80;;;2.50;99.90;;;;;;4987343;28;20045;-75
2023/01/17 03:43:44;;;;;;;4.53;0.77;;;2.60;99.90;;;;;;4956544;28;20042;-75
2023/01/17 03:46:25;;;;;;;5.13;0.77;;;2.60;99.90;;;;;;4956473;28;20413;-75
2023/01/17 03:48:51;;;;;;;8.68;1.27;;;2.70;99.90;;;;;;4989667;28;20068;-75
2023/01/17 03:51:17;;;;;;;10.30;1.38;;;2.60;99.90;;;;;;4982397;28;20141;-73
2023/01/17 03:53:45;;;;;;;9.77;1.27;;;2.70;99.90;;;;;;4993455;28;20140;-73
2023/01/17 03:56:12;;;;;;;6.77;1.10;;;2.70;99.90;;;;;;4972192;28;20050;-73
2023/01/17 03:58:38;;;;;;;9.25;1.10;;;2.60;99.90;;;;;;4972585;28;20049;-73
2023/01/17 04:01:07;;;;;;;10.63;1.58;;;2.60;99.90;;;;;;4988870;28;20378;-73
2023/01/17 04:03:34;;;;;;;8.77;1.15;;;2.50;99.90;;;;;;4979310;28;20054;-73
2023/01/17 04:06:00;;;;;;;6.37;1.13;;;2.50;99.90;;;;;;4970727;28;20053;-73
2023/01/17 04:08:26;;;;;;;9.47;1.23;;;2.40;99.90;;;;;;4973459;28;20049;-73
2023/01/17 04:10:52;;;;;;;7.70;0.97;;;2.40;99.90;;;;;;4972287;28;20045;-73
2023/01/17 04:13:18;;;;;;;6.27;1.13;;;2.30;99.90;;;;;;4972787;28;20699;-73
2023/01/17 04:15:47;;;;;;;8.17;1.50;;;2.20;99.90;;;;;;4951333;28;20113;-73
2023/01/17 04:18:15;;;;;;;8.43;1.60;;;2.20;99.90;;;;;;4987900;28;20042;-74
2023/01/17 04:20:41;;;;;;;5.97;0.90;;;2.10;99.90;;;;;;4968722;28;20061;-73
2023/01/17 04:23:07;;;;;;;6.07;1.30;;;2.10;99.90;;;;;;4953849;28;20046;-74
2023/01/17 04:25:33;;;;;;;6.47;1.00;;;2.10;99.90;;;;;;4973514;28;20202;-74
2023/01/17 04:28:00;;;;;;;7.23;1.00;;;2.00;99.90;;;;;;4987703;28;20571;-73
2023/01/17 04:30:27;;;;;;;13.03;1.67;;;1.90;99.90;;;;;;4982818;28;20074;-73
2023/01/17 04:32:54;;;;;;;6.40;1.30;;;2.00;99.90;;;;;;4969227;28;20383;-73
2023/01/17 04:35:20;;;;;;;8.73;1.40;;;2.00;99.90;;;;;;4968234;28;20046;-73
2023/01/17 04:37:46;;;;;;;9.10;1.33;;;2.00;99.90;;;;;;4970505;28;20065;-73
2023/01/17 04:40:12;;;;;;;4.55;1.10;;;1.90;99.90;;;;;;4967758;28;20057;-73
2023/01/17 04:42:38;;;;;;;11.73;1.63;;;1.90;99.90;;;;;;4986439;28;20052;-73
2023/01/17 04:45:05;;;;;;;9.03;1.20;;;1.90;99.90;;;;;;4968083;28;20046;-73
2023/01/17 04:47:32;;;;;;;8.50;1.50;;;1.90;99.90;;;;;;4969666;28;20081;-75
2023/01/17 04:49:58;;;;;;;14.10;1.93;;;1.90;99.90;;;;;;4985262;28;20046;-75
2023/01/17 04:52:24;;;;;;;7.63;1.63;;;1.80;99.90;;;;;;4987442;28;20053;-76
2023/01/17 04:54:51;;;;;;;9.00;1.57;;;1.80;99.90;;;;;;4983286;28;20564;-73
2023/01/17 04:57:18;;;;;;;10.17;1.83;;;1.80;99.90;;;;;;4970168;28;20046;-75
2023/01/17 04:59:45;;;;;;;10.57;1.90;;;1.80;99.90;;;;;;4967424;28;20392;-75
2023/01/17 05:02:12;;;;;;;7.13;1.17;;;1.80;99.90;;;;;;4964815;28;20046;-75
2023/01/17 05:04:38;;;;;;;7.57;0.90;;;1.80;99.90;;;;;;4970619;28;20448;-75
2023/01/17 05:07:07;;;;;;;6.33;1.13;;;1.80;99.90;;;;;;4985224;28;20058;-75
2023/01/17 05:09:33;;;;;;;8.20;1.33;;;1.80;99.90;;;;;;4973807;28;20051;-75
2023/01/17 05:11:59;;;;;;;7.80;1.20;;;1.70;99.90;;;;;;4984994;28;20446;-76
2023/01/17 05:14:25;;;;;;;6.60;0.90;;;1.70;99.90;;;;;;4982345;28;20061;-75
2023/01/17 05:16:55;;;;;;;7.27;1.00;;;1.70;99.90;;;;;;4968816;28;20416;-76
2023/01/17 05:19:25;;;;;;;6.83;1.07;;;1.60;99.90;;;;;;4984724;28;20053;-76
2023/01/17 05:21:51;;;;;;;10.93;1.13;;;1.60;99.90;;;;;;4983092;28;20054;-75
2023/01/17 05:24:18;;;;;;;6.83;1.23;;;1.60;99.90;;;;;;4983629;28;20030;-75
2023/01/17 05:26:44;;;;;;;7.23;0.90;;;1.50;99.90;;;;;;4980367;28;20038;-75
2023/01/17 05:29:10;;;;;;;8.87;1.37;;;1.50;99.90;;;;;;4966853;28;20042;-76
2023/01/17 05:31:36;;;;;;;6.60;1.03;;;1.40;99.90;;;;;;4980082;28;20629;-75
2023/01/17 05:34:03;;;;;;;7.90;1.03;;;1.40;99.90;;;;;;4967838;28;20056;-75
2023/01/17 05:36:29;;;;;;;6.13;1.30;;;1.40;99.90;;;;;;4968567;28;20279;-75
2023/01/17 05:38:54;;;;;;;8.77;1.37;;;1.30;99.90;;;;;;4979621;28;20034;-75
2023/01/17 05:41:20;;;;;;;10.73;1.60;;;1.30;99.90;;;;;;4965087;28;20408;-75
2023/01/17 05:43:46;;;;;;;7.43;1.00;;;1.20;99.90;;;;;;4966972;28;20531;-75
2023/01/17 05:46:12;;;;;;;7.77;1.10;;;1.20;99.90;;;;;;4949790;28;20047;-75
2023/01/17 05:48:37;;;;;;;7.83;1.20;;;1.20;99.90;;;;;;4951412;28;20038;-75
2023/01/17 05:51:03;;;;;;;6.53;1.47;;;1.20;99.90;;;;;;4963747;28;20520;-74
2023/01/17 05:53:29;;;;;;;8.90;1.27;;;1.20;99.90;;;;;;4984255;28;20113;-75
2023/01/17 05:55:55;;;;;;;8.20;1.43;;;1.10;99.90;;;;;;4978693;28;20043;-75
2023/01/17 05:58:21;;;;;;;9.17;2.03;;;1.10;99.90;;;;;;4979506;28;20066;-73
2023/01/17 06:00:47;;;;;;;5.87;1.43;;;1.10;99.90;;;;;;4982334;28;20042;-73
2023/01/17 06:03:15;;;;;;;9.97;1.60;;;1.00;99.90;;;;;;4979434;28;20073;-73
2023/01/17 06:05:41;;;;;;;9.87;1.60;;;1.00;99.90;;;;;;4981578;28;20050;-73
2023/01/17 06:08:07;;;;;;;9.23;1.40;;;1.00;99.90;;;;;;4962972;28;21030;-74
2023/01/17 06:10:33;;;;;;;12.27;1.63;;;1.00;99.90;;;;;;4969923;28;20038;-73
2023/01/17 06:13:11;;;;;;;10.83;2.33;;;1.00;99.90;;;;;;4964629;28;20105;-73
2023/01/17 06:15:37;;;;;;;8.10;1.50;;;0.90;99.90;;;;;;4964776;28;20101;-73
2023/01/17 06:18:08;;;;;;;7.40;1.50;;;0.90;99.90;;;;;;4979964;28;20042;-73
2023/01/17 06:20:34;;;;;;;7.87;1.67;;;0.90;99.90;;;;;;4978341;28;20137;-73
2023/01/17 06:23:05;;;;;;;7.03;1.40;;;0.90;99.90;;;;;;4965833;28;20039;-73
2023/01/17 06:25:35;;;;;;;;;;;0.80;99.90;;;;;;4981992;28;20061;-73
2023/01/17 06:28:01;;;;;;;5.90;1.20;;;0.80;99.90;;;;;;4987280;28;19929;-76
2023/01/17 06:30:27;;;;;;;9.13;1.40;;;0.80;99.90;;;;;;4967897;28;20390;-76
2023/01/17 06:32:56;;;;;;;6.50;1.57;;;0.80;99.90;;;;;;4953583;28;20045;-76
2023/01/17 06:35:22;;;;;;;9.57;2.10;;;0.80;99.90;;;;;;4966461;28;20042;-76
2023/01/17 06:37:54;;;;;;;9.40;1.40;;;0.80;99.90;;;;;;4951947;28;20034;-76
2023/01/17 06:40:20;;;;;;;8.57;1.43;;;0.80;99.90;;;;;;4964884;28;20054;-76
2023/01/17 06:42:46;;;;;;;9.33;1.33;;;0.80;99.90;;;;;;4984954;28;20046;-76
2023/01/17 06:45:12;;;;;;;8.53;1.63;;;0.90;99.90;;;;;;4952492;28;20376;-75
2023/01/17 06:47:39;;;;;;;10.30;1.70;;;0.90;99.90;;;;;;4969362;28;20038;-76
2023/01/17 06:50:07;;;;;;;12.93;1.93;;;0.90;99.90;;;;;;4985455;28;20451;-75
2023/01/17 06:52:35;;;;;;;;;;;0.90;99.90;;;;;;4970238;28;20448;-76
2023/01/17 06:55:01;;;;;;;8.50;1.20;;;1.00;99.90;;;;;;4968983;28;20153;-75
2023/01/17 06:57:27;;;;;;;12.03;1.53;;;0.90;99.90;;;;;;4986588;28;20050;-75
2023/01/17 06:59:53;;;;;;;7.90;1.50;;;0.80;99.90;;;;;;4953488;28;20054;-75
2023/01/17 07:02:19;;;;;;;7.83;1.40;;;0.90;99.90;;;;;;4966327;28;20046;-75
2023/01/17 07:04:45;;;;;;;7.30;1.47;;;0.80;99.90;;;;;;4937827;28;20049;-75
2023/01/17 07:07:10;;;;;;;8.37;1.50;;;0.80;99.90;;;;;;4951816;28;20051;-75
2023/01/17 07:09:36;;;;;;;7.87;1.60;;;0.80;99.90;;;;;;4963394;28;20393;-75
2023/01/17 07:12:02;;;;;;;9.00;1.60;;;0.80;99.90;;;;;;4968300;28;20469;-76
2023/01/17 07:14:28;;;;;;;6.83;1.17;;;0.90;99.90;;;;;;4968335;28;20050;-75
2023/01/17 07:16:55;;;;;;;5.87;1.37;;;0.90;99.90;;;;;;4953218;28;20382;-75
2023/01/17 07:19:21;;;;;;;6.67;1.03;;;0.90;99.90;;;;;;4983166;28;20050;-75
2023/01/17 07:21:53;;;;;;;8.67;1.07;;;0.90;99.90;;;;;;4985451;28;20041;-75
2023/01/17 07:24:20;;;;;;;7.20;1.20;;;0.90;99.90;;;;;;4971014;28;20046;-75
2023/01/17 07:26:50;;;;;;;6.03;0.80;;;0.90;99.90;;;;;;4985689;28;20603;-75
2023/01/17 07:29:16;;;;;;;5.68;0.90;;;0.90;99.90;;;;;;4983699;28;20046;-75
2023/01/17 07:31:42;;;;;;;7.37;1.00;;;1.00;99.90;;;;;;4973154;28;20507;-75
2023/01/17 07:34:08;;;;;;;6.40;1.30;;;1.00;99.90;;;;;;4985367;28;20579;-75
2023/01/17 07:36:34;;;;;;;9.30;1.10;;;1.00;99.90;;;;;;4983016;28;20139;-75
2023/01/17 07:39:00;;;;;;;8.57;1.30;;;1.00;99.90;;;;;;4969764;28;20050;-75
2023/01/17 07:41:26;;;;;;;5.20;1.17;;;1.00;99.90;;;;;;4985451;28;20348;-75
2023/01/17 07:43:52;;;;;;;7.67;0.90;;;1.00;99.90;;;;;;4952974;28;20042;-75
2023/01/17 07:46:18;;;;;;;5.80;1.37;;;1.00;99.90;;;;;;4982699;28;20297;-75
2023/01/17 07:48:44;;;;;;;7.33;1.10;;;1.00;99.90;;;;;;4958417;28;20046;-75
2023/01/17 07:51:09;;;;;;;6.13;1.10;;;1.00;99.90;;;;;;4983603;28;20100;-75
2023/01/17 07:53:35;;;;;;;3.63;0.80;;;1.00;99.90;;;;;;4969028;28;20054;-75
2023/01/17 07:56:03;;;;;;;8.10;1.60;;;1.00;99.90;;;;;;4952380;28;20133;-75
2023/01/17 07:58:30;;;;;;;5.27;0.90;;;0.90;99.90;;;;;;4968407;28;20054;-76
2023/01/17 08:01:08;;;;;;;4.97;0.87;;;1.00;99.90;;;;;;4970678;28;20043;-75
2023/01/17 08:03:38;;;;;;;9.30;1.27;;;1.00;99.90;;;;;;4968727;28;20050;-76
2023/01/17 08:06:16;;;;;;;8.40;1.38;;;0.90;99.90;;;;;;4969183;28;20042;-76
2023/01/17 08:08:41;;;;;;;7.30;1.23;;;0.90;99.90;;;;;;4965984;28;20046;-76
2023/01/17 08:11:07;;;;;;;6.30;1.60;;;0.90;99.90;;;;;;4984712;28;20460;-76
2023/01/17 08:13:33;;;;;;;8.63;1.97;;;1.00;99.90;;;;;;4962863;28;20054;-76
2023/01/17 08:16:01;;;;;;;7.63;1.57;;;1.00;99.90;;;;;;4951151;28;20066;-76
2023/01/17 08:18:27;;;;;;;5.03;1.20;;;1.00;99.90;;;;;;4950626;28;20054;-76
2023/01/17 08:20:53;;;;;;;6.40;1.20;;;1.10;99.90;;;;;;4971264;28;20458;-76
2023/01/17 08:23:19;;;;;;;6.20;1.13;;;1.10;99.90;;;;;;4954790;28;20160;-76
2023/01/17 08:25:45;;;;;;;7.00;1.20;;;1.10;99.90;;;;;;4969377;28;20508;-76
2023/01/17 08:28:11;;;;;;;4.70;1.30;;;1.10;99.90;;;;;;4986984;28;20108;-76
2023/01/17 08:30:38;;;;;;;7.67;1.50;;;1.10;99.90;;;;;;4953179;28;20042;-76
2023/01/17 08:33:05;;;;;;;8.13;1.17;;;1.10;99.90;;;;;;4987402;28;20053;-76
2023/01/17 08:35:30;;;;;;;6.37;1.33;;;1.10;99.90;;;;;;4970479;28;20559;-76
2023/01/17 08:37:58;;;;;;;7.20;1.27;;;1.10;99.90;;;;;;4986751;28;20038;-76
2023/01/17 08:40:24;;;;;;;6.27;1.87;;;1.20;99.90;;;;;;4952704;28;20066;-76
2023/01/17 08:42:59;;;;;;;8.37;1.30;;;1.20;99.90;;;;;;4972404;28;20484;-76
2023/01/17 08:45:25;;;;;;;7.63;1.20;;;1.20;99.90;;;;;;4984747;28;20093;-76
2023/01/17 08:47:51;;;;;;;6.17;1.13;;;1.20;99.90;;;;;;4985584;28;20042;-76
2023/01/17 08:50:20;;;;;;;8.83;1.47;;;1.20;99.90;;;;;;4971721;28;20042;-76
2023/01/17 08:52:47;;;;;;;7.37;1.43;;;1.30;99.90;;;;;;4985495;28;20490;-76
2023/01/17 08:55:14;;;;;;;9.17;1.60;;;1.30;99.90;;;;;;4985375;28;20060;-76
2023/01/17 08:57:40;;;;;;;10.63;1.43;;;1.30;99.90;;;;;;4973118;28;20097;-75
2023/01/17 09:00:06;;;;;;;7.40;1.27;;;1.30;99.90;;;;;;4951276;28;20056;-75
2023/01/17 09:02:32;;;;;;;7.83;1.70;;;1.30;99.90;;;;;;4954170;28;20050;-75
2023/01/17 09:04:59;;;;;;;5.67;1.33;;;1.40;99.90;;;;;;4965459;28;20374;-75
2023/01/17 09:07:25;;;;;;;9.73;1.37;;;1.40;99.90;;;;;;4987920;28;20091;-75
2023/01/17 09:09:52;;;;;;;6.73;1.20;;;1.40;99.90;;;;;;4985318;28;20096;-75
2023/01/17 09:12:21;;;;;;;8.50;1.37;;;1.40;99.90;;;;;;4987566;28;20050;-75
2023/01/17 09:14:47;;;;;;;7.87;1.90;;;1.50;99.90;;;;;;4973222;28;20451;-76
2023/01/17 09:17:14;;;;;;;5.37;1.40;;;1.50;99.90;;;;;;4973072;28;20037;-76
2023/01/17 09:19:43;;;;;;;4.33;1.33;;;1.50;99.90;;;;;;4955205;28;20419;-76
2023/01/17 09:22:10;;;;;;;8.55;1.88;;;1.60;99.90;;;;;;4954705;28;20049;-76
2023/01/17 09:24:36;;;;;;;7.63;1.97;;;1.60;99.90;;;;;;4968956;28;20056;-75
2023/01/17 09:27:02;;;;;;;8.10;1.90;;;1.70;99.90;;;;;;4969573;28;20489;-76
2023/01/17 09:29:28;;;;;;;7.87;1.77;;;1.70;99.90;;;;;;4954352;28;20128;-75
2023/01/17 09:31:54;;;;;;;7.10;1.90;;;1.70;99.90;;;;;;4953956;28;20820;-75
2023/01/17 09:34:22;;;;;;;9.47;2.03;;;1.70;99.90;;;;;;4968795;28;20439;-75
2023/01/17 09:36:48;;;;;;;8.73;2.13;;;1.80;99.90;;;;;;4970978;28;20034;-75
2023/01/17 09:39:14;;;;;;;8.77;2.20;;;1.80;99.90;;;;;;4953042;28;20456;-77
2023/01/17 09:42:20;;;;;;;7.70;2.07;;;1.80;99.90;;;;;;4984986;28;20042;-75
2023/01/17 09:44:51;;;;;;;9.57;2.30;;;1.90;99.90;;;;;;4958264;28;20586;-75
2023/01/17 09:47:39;;;;;;;6.37;1.97;;;1.90;99.90;;;;;;4984897;28;20083;-76
2023/01/17 09:50:20;;;;;;;6.67;2.03;;;1.90;99.90;;;;;;4987337;28;20050;-76
2023/01/17 09:52:46;;;;;;;6.70;2.10;;;2.00;99.90;;;;;;4968722;28;20692;-75
2023/01/17 09:55:16;;;;;;;8.30;2.50;;;2.00;99.90;;;;;;4985705;28;20046;-75
2023/01/17 09:58:00;;;;;;;11.30;2.67;;;2.10;99.90;;;;;;4985547;28;20042;-76
2023/01/17 10:01:02;;;;;;;8.93;2.13;;;2.20;99.90;;;;;;4985854;28;20058;-76
2023/01/17 10:03:42;;;;;;;8.37;2.40;;;2.20;99.90;;;;;;4989691;28;20087;-76
2023/01/17 10:06:29;;;;;;;9.20;2.23;;;2.20;99.90;;;;;;4986723;28;20053;-75
2023/01/17 10:09:06;;;;;;;9.63;2.07;;;2.20;99.90;;;;;;4990393;28;20057;-76
2023/01/17 10:12:10;;;;;;;8.47;2.43;;;2.30;99.90;;;;;;4975176;28;20053;-75
2023/01/17 10:15:07;;;;;;;11.20;2.73;;;2.40;99.90;;;;;;4987996;28;20080;-74
2023/01/17 10:17:47;;;;;;;8.40;2.50;;;2.40;99.90;;;;;;4973832;28;20077;-75
2023/01/17 10:20:34;;;;;;;9.90;2.38;;;2.40;99.90;;;;;;4988440;28;20104;-75
2023/01/17 10:23:06;;;;;;;6.07;2.43;;;2.50;99.90;;;;;;4974672;28;20045;-75
2023/01/17 10:25:51;;;;;;;6.47;1.90;;;2.50;99.90;;;;;;4986364;28;20749;-76
2023/01/17 10:28:20;;;;;;;7.93;2.10;;;2.60;99.90;;;;;;4986531;28;20515;-75
2023/01/17 10:30:49;;;;;;;5.93;2.23;;;2.60;99.90;;;;;;4990782;28;20049;-75
2023/01/17 10:33:19;;;;;;;7.33;2.60;;;2.70;99.90;;;;;;4987410;28;20061;-76
2023/01/17 10:35:57;;;;;;;6.33;2.30;;;2.70;99.90;;;;;;4988381;28;20665;-75
2023/01/17 10:38:36;;;;;;;5.72;1.88;;;2.70;99.90;;;;;;4988011;28;20037;-76
2023/01/17 10:41:24;;;;;;;8.83;2.10;;;2.70;99.90;;;;;;4988402;28;20042;-76
2023/01/17 10:44:09;;;;;;;7.03;2.28;;;2.80;99.90;;;;;;4972419;28;20136;-76
2023/01/17 10:46:46;;;;;;;7.30;2.17;;;2.80;99.90;;;;;;4989008;28;20633;-75
2023/01/17 10:49:18;;;;;;;8.10;2.03;;;2.90;99.90;;;;;;4987841;28;20057;-75
2023/01/17 10:51:59;;;;;;;7.57;2.17;;;2.90;99.90;;;;;;4988990;28;20038;-75
2023/01/17 10:54:34;;;;;;;7.47;2.10;;;3.00;99.90;;;;;;4986578;28;20042;-75
2023/01/17 10:57:00;;;;;;;6.07;1.58;;;3.00;99.90;;;;;;4989472;28;20056;-75
2023/01/17 10:59:29;;;;;;;7.30;2.20;;;3.00;99.90;;;;;;4954359;28;20042;-75
2023/01/17 11:01:55;;;;;;;5.45;1.88;;;3.10;99.90;;;;;;4990029;28;20038;-76
2023/01/17 11:04:30;;;;;;;4.45;1.67;;;3.20;99.90;;;;;;4969425;28;20049;-76
2023/01/17 11:07:20;;;;;;;8.65;2.00;;;3.20;99.90;;;;;;4971431;28;20136;-75
2023/01/17 11:09:52;;;;;;;5.97;1.90;;;3.30;99.90;;;;;;4987579;28;20088;-77
2023/01/17 11:12:25;;;;;;;4.00;1.60;;;3.40;99.90;;;;;;4970277;28;20096;-77
2023/01/17 11:15:00;;;;;;;5.13;1.80;;;3.40;99.90;;;;;;4988101;28;20773;-77
2023/01/17 11:17:27;;;;;;;6.53;1.70;;;3.50;99.90;;;;;;4984076;28;20389;-75
2023/01/17 11:20:04;;;;;;;4.95;1.48;;;3.50;99.90;;;;;;4968766;28;20132;-75
2023/01/17 11:22:31;;;;;;;8.70;1.70;;;3.60;99.90;;;;;;4983850;28;20058;-78
2023/01/17 11:24:58;;;;;;;9.10;1.90;;;3.60;99.90;;;;;;4953649;28;20085;-77
2023/01/17 11:27:33;;;;;;;6.53;1.83;;;3.60;99.90;;;;;;4983719;28;20223;-75
2023/01/17 11:30:19;;;;;;;5.47;1.38;;;3.70;99.90;;;;;;4984371;28;20568;-75
2023/01/17 11:33:00;;;;;;;6.47;1.33;;;3.70;99.90;;;;;;4953458;28;20046;-75
2023/01/17 11:35:29;;;;;;;5.40;1.20;;;3.80;99.90;;;;;;4984256;28;20070;-75
2023/01/17 11:38:01;;;;;;;11.88;1.67;;;3.80;99.90;;;;;;4968033;28;20054;-75
2023/01/17 11:40:35;;;;;;;4.97;1.40;;;3.80;99.90;;;;;;4985683;28;20438;-76
2023/01/17 11:43:17;;;;;;;5.65;1.33;;;3.90;99.90;;;;;;4968072;28;20783;-76
2023/01/17 11:45:44;;;;;;;6.13;1.55;;;3.90;99.90;;;;;;4983729;28;20048;-76
2023/01/17 11:48:12;;;;;;;7.40;1.50;;;4.00;99.90;;;;;;4984089;28;20050;-75
2023/01/17 11:50:53;;;;;;;4.88;1.33;;;4.10;99.90;;;;;;4967913;28;20034;-73
2023/01/17 11:53:27;;;;;;;5.47;1.60;;;4.10;99.90;;;;;;4969322;28;20121;-74
2023/01/17 11:56:13;;;;;;;8.32;1.80;;;4.10;99.90;;;;;;4968501;28;20050;-74
2023/01/17 11:58:41;;;;;;;5.75;1.50;;;4.10;99.90;;;;;;4984187;28;20050;-74
2023/01/17 12:01:21;;;;;;;7.95;1.88;;;4.10;99.90;;;;;;4984760;28;20505;-76
2023/01/17 12:04:02;;;;;;;7.13;1.58;;;4.20;99.90;;;;;;4968875;28;20054;-76
2023/01/17 12:06:43;;;;;;;7.80;1.85;;;4.20;99.90;;;;;;4967882;28;20506;-76
2023/01/17 12:09:45;;;;;;;8.85;2.33;;;4.20;99.90;;;;;;4982973;28;20129;-76
2023/01/17 12:15:07;;;;;;;6.85;1.70;;;4.40;99.90;;;;;;4984769;28;20582;-76
2023/01/17 12:18:20;;;;;;;4.05;1.38;;;4.40;99.90;;;;;;4966900;28;20527;-74
2023/01/17 12:21:29;;;;;;;6.50;1.92;;;4.50;99.90;;;;;;4980925;28;20042;-75
2023/01/17 12:24:32;;;;;;;5.65;1.80;;;4.60;99.90;;;;;;4950050;28;20130;-74
2023/01/17 12:27:13;;;;;;;8.10;1.77;;;4.60;99.90;;;;;;4964377;28;20046;-77
2023/01/17 12:30:09;;;;;;;8.25;1.50;;;4.70;99.90;;;;;;4966546;28;20046;-76
2023/01/17 12:32:56;;;;;;;5.95;1.80;;;4.80;99.90;;;;;;4965735;28;20058;-76
2023/01/17 12:35:56;;;;;;;6.13;1.48;;;4.80;99.90;;;;;;4979104;28;20521;-77
2023/01/17 12:38:44;;;;;;;5.72;1.73;;;4.90;99.90;;;;;;4965370;28;20073;-77
2023/01/17 12:41:22;;;;;;;4.55;1.50;;;4.90;99.90;;;;;;4983848;28;20588;-77
2023/01/17 12:43:52;;;;;;;6.07;1.42;;;4.80;99.90;;;;;;4968794;28;20496;-77
2023/01/17 12:46:30;;;;;;;5.78;1.33;;;4.80;99.90;;;;;;4966109;28;20373;-77
2023/01/17 12:49:24;;;;;;;4.45;0.90;;;4.80;99.90;;;;;;4985433;28;20046;-78
2023/01/17 12:52:00;;;;;;;4.88;1.10;;;4.80;99.90;;;;;;4968592;28;20066;-77
2023/01/17 12:54:40;;;;;;;3.85;0.70;;;4.70;99.90;;;;;;4965573;28;20440;-78
2023/01/17 12:57:24;;;;;;;2.50;0.87;;;4.80;99.90;;;;;;4983401;28;20136;-77
2023/01/17 13:00:18;;;;;;;4.40;0.70;;;4.80;99.90;;;;;;4982155;28;20289;-77
2023/01/17 13:02:57;;;;;;;4.68;0.65;;;4.80;99.90;;;;;;4962474;28;20085;-77
2023/01/17 13:05:39;;;;;;;4.30;0.90;;;4.80;99.90;;;;;;4966615;28;20054;-75
2023/01/17 13:08:23;;;;;;;4.40;0.73;;;4.80;99.90;;;;;;4966920;28;20047;-74
2023/01/17 13:10:56;;;;;;;5.18;0.93;;;4.80;99.90;;;;;;4967070;28;20050;-74
2023/01/17 13:13:28;;;;;;;6.10;0.90;;;4.80;99.90;;;;;;4983317;28;20053;-78
2023/01/17 13:16:04;;;;;;;4.88;0.93;;;4.80;99.90;;;;;;4967467;28;20048;-77
2023/01/17 13:18:32;;;;;;;3.60;0.88;;;4.70;99.90;;;;;;4982604;28;20042;-77
2023/01/17 13:21:08;;;;;;;4.43;0.82;;;4.80;99.90;;;;;;4949354;28;20140;-74
2023/01/17 13:23:49;;;;;;;4.40;1.13;;;4.80;99.90;;;;;;4969237;28;20489;-74
2023/01/17 13:26:43;;;;;;;3.10;0.80;;;4.80;99.90;;;;;;4966894;28;20053;-74
2023/01/17 13:29:36;;;;;;;1.73;0.73;;;4.80;99.90;;;;;;4982465;28;20050;-74
2023/01/17 13:32:20;;;;;;;3.47;0.80;;;4.80;99.90;;;;;;4966615;28;20054;-74
2023/01/17 13:35:20;;;;;;;3.72;0.82;;;4.80;99.90;;;;;;4972025;28;20045;-74
2023/01/17 13:38:05;;;;;;;5.05;1.10;;;4.80;99.90;;;;;;4968663;28;20141;-76
2023/01/17 13:40:48;;;;;;;3.58;0.90;;;4.80;99.90;;;;;;4982929;28;20050;-73
2023/01/17 13:43:21;;;;;;;4.30;0.82;;;4.80;99.90;;;;;;4963849;28;20050;-74
2023/01/17 13:45:58;;;;;;;3.45;0.68;;;4.70;99.90;;;;;;4963631;28;20505;-74
2023/01/17 13:48:33;;;;;;;3.20;0.80;;;4.70;99.90;;;;;;4981259;28;20109;-74
2023/01/17 13:51:06;;;;;;;2.65;0.55;;;4.70;99.90;;;;;;4981699;28;20048;-74
2023/01/17 13:53:38;;;;;;;2.72;0.60;;;4.70;99.90;;;;;;4972309;28;20130;-74
2023/01/17 13:56:24;;;;;;;5.50;1.08;;;4.70;99.90;;;;;;4966707;28;20400;-73
2023/01/17 13:58:53;;;;;;;4.05;1.00;;;4.70;99.90;;;;;;4965708;28;20043;-74
2023/01/17 14:01:22;;;;;;;3.50;0.77;;;4.70;99.90;;;;;;4981035;28;20482;-74
2023/01/17 14:03:51;;;;;;;3.78;0.70;;;4.60;99.90;;;;;;4970470;28;20050;-73
2023/01/17 14:06:37;;;;;;;4.55;0.60;;;4.70;99.90;;;;;;4981105;28;20089;-74
2023/01/17 14:09:18;;;;;;;3.63;0.60;;;4.70;99.90;;;;;;4982650;28;20047;-73
2023/01/17 14:12:07;;;;;;;2.53;0.70;;;4.60;99.90;;;;;;4968518;28;20569;-73
2023/01/17 14:14:39;;;;;;;7.05;0.90;;;4.70;99.90;;;;;;4964339;28;20553;-73
2023/01/17 14:17:24;;;;;;;4.50;0.73;;;4.50;99.90;;;;;;4968693;28;20058;-74
2023/01/17 14:19:56;;;;;;;3.83;0.90;;;4.50;99.90;;;;;;4982750;28;20055;-73
2023/01/17 14:22:28;;;;;;;4.07;0.88;;;4.50;99.90;;;;;;4980916;28;20050;-73
2023/01/17 14:25:22;;;;;;;3.75;0.73;;;4.40;99.90;;;;;;4981147;28;20034;-73
2023/01/17 14:27:55;;;;;;;2.88;0.70;;;4.30;99.90;;;;;;4932024;28;20053;-74
2023/01/17 14:30:26;;;;;;;2.90;0.63;;;4.20;99.90;;;;;;4983129;28;20050;-74
2023/01/17 14:32:57;;;;;;;;;;;4.00;99.90;;;;;;4968292;28;20057;-77
2023/01/17 14:35:46;;;;;;;6.13;0.70;;;4.10;99.90;;;;;;4980517;28;20443;-77
2023/01/17 14:38:19;;;;;;;3.38;0.90;;;4.10;99.90;;;;;;4979450;28;20061;-77
2023/01/17 14:40:52;;;;;;;4.53;1.20;;;4.00;99.90;;;;;;4981792;28;20270;-77
2023/01/17 14:43:21;;;;;;;4.93;1.30;;;4.00;99.90;;;;;;4960519;28;20541;-77
2023/01/17 14:45:47;;;;;;;6.68;1.52;;;4.10;99.90;;;;;;4971227;28;20038;-77
2023/01/17 14:48:21;;;;;;;5.63;1.65;;;4.10;99.90;;;;;;4979265;28;20501;-74
2023/01/17 14:50:49;;;;;;;5.15;1.52;;;4.10;99.90;;;;;;4985578;28;20552;-73